createdAt,value
2023-12-05T00:01:33.491Z,3.85
2023-12-05T00:04:19.331Z,3.84
2023-12-05T00:07:05.310Z,3.83
2023-12-05T00:09:51.819Z,3.84
2023-12-05T00:12:37.331Z,3.86
2023-12-05T00:15:23.126Z,3.84
2023-12-05T00:18:10.444Z,3.86
2023-12-05T00:20:56.146Z,3.83
2023-12-05T00:23:41.465Z,3.83
2023-12-05T00:26:26.836Z,3.83
2023-12-05T00:29:12.358Z,3.83
2023-12-05T00:31:57.928Z,3.80
2023-12-05T00:34:49.677Z,3.79
2023-12-05T00:37:35.827Z,3.77
2023-12-05T00:40:21.377Z,3.75
2023-12-05T00:43:07.154Z,3.74
2023-12-05T00:45:52.961Z,3.72
2023-12-05T00:48:38.715Z,3.70
2023-12-05T00:51:24.552Z,3.70
2023-12-05T00:54:11.774Z,3.69
2023-12-05T00:56:58.570Z,3.69
2023-12-05T00:59:44.437Z,3.68
2023-12-05T01:02:30.498Z,3.69
2023-12-05T01:05:16.152Z,3.68
2023-12-05T01:08:02.151Z,3.65
2023-12-05T01:10:47.819Z,3.63
2023-12-05T01:13:33.258Z,3.62
2023-12-05T01:16:19.063Z,3.61
2023-12-05T01:19:04.619Z,3.59
2023-12-05T01:21:50.493Z,3.58
2023-12-05T01:24:36.011Z,3.57
2023-12-05T01:27:21.522Z,3.54
2023-12-05T01:30:07.811Z,3.55
2023-12-05T01:32:53.527Z,3.54
2023-12-05T01:35:38.932Z,3.51
2023-12-05T01:38:24.451Z,3.52
2023-12-05T01:41:09.872Z,3.51
2023-12-05T01:43:55.325Z,3.50
2023-12-05T01:46:40.969Z,3.48
2023-12-05T01:49:29.981Z,3.46
2023-12-05T01:52:17.544Z,3.46
2023-12-05T01:55:03.695Z,3.45
2023-12-05T01:57:49.919Z,3.44
2023-12-05T02:00:38.594Z,3.45
2023-12-05T02:03:24.386Z,3.44
2023-12-05T02:06:11.644Z,3.44
2023-12-05T02:08:58.958Z,3.42
2023-12-05T02:11:44.735Z,3.43
2023-12-05T02:14:30.490Z,3.40
2023-12-05T02:17:25.651Z,3.41
2023-12-05T02:20:34.750Z,3.41
2023-12-05T02:23:38.522Z,3.41
2023-12-05T02:26:30.418Z,3.42
2023-12-05T02:29:16.052Z,3.41
2023-12-05T02:32:01.771Z,3.40
2023-12-05T02:34:48.197Z,3.38
2023-12-05T02:37:57.513Z,3.39
2023-12-05T02:41:03.419Z,3.39
2023-12-05T02:44:16.986Z,3.39
2023-12-05T02:47:03.597Z,3.39
2023-12-05T02:49:49.871Z,3.39
2023-12-05T02:52:39.880Z,3.38
2023-12-05T02:55:25.272Z,3.41
2023-12-05T02:58:10.901Z,3.44
2023-12-05T03:00:56.613Z,3.48
2023-12-05T03:03:43.019Z,3.55
2023-12-05T03:06:29.691Z,3.58
2023-12-05T03:09:15.588Z,3.59
2023-12-05T03:12:00.958Z,3.60
2023-12-05T03:14:46.583Z,3.56
2023-12-05T03:17:32.522Z,3.54
2023-12-05T03:20:18.976Z,3.50
2023-12-05T03:23:04.727Z,3.48
2023-12-05T03:25:50.140Z,3.47
2023-12-05T03:28:35.563Z,3.44
2023-12-05T03:31:21.137Z,3.42
2023-12-05T03:34:07.907Z,3.40
2023-12-05T03:36:53.394Z,3.36
2023-12-05T03:39:38.813Z,3.34
2023-12-05T03:42:24.276Z,3.30
2023-12-05T03:45:09.994Z,3.29
2023-12-05T03:47:55.847Z,3.28
2023-12-05T03:50:41.364Z,3.25
2023-12-05T03:53:26.772Z,3.24
2023-12-05T03:56:12.397Z,3.23
2023-12-05T03:58:58.072Z,3.23
2023-12-05T04:01:43.558Z,3.22
2023-12-05T04:04:29.083Z,3.21
2023-12-05T04:07:14.847Z,3.21
2023-12-05T04:10:00.345Z,3.21
2023-12-05T04:12:46.890Z,3.22
2023-12-05T04:15:32.387Z,3.24
2023-12-05T04:18:17.955Z,3.26
2023-12-05T04:21:03.978Z,3.25
2023-12-05T04:23:49.712Z,3.25
2023-12-05T04:26:35.148Z,3.25
2023-12-05T04:29:20.523Z,3.25
2023-12-05T04:32:06.285Z,3.25
2023-12-05T04:34:52.558Z,3.25
2023-12-05T04:37:41.131Z,3.26
2023-12-05T04:40:27.171Z,3.25
2023-12-05T04:43:12.749Z,3.25
2023-12-05T04:45:58.753Z,3.21
2023-12-05T04:48:44.590Z,3.21
2023-12-05T04:51:29.979Z,3.23
2023-12-05T04:54:15.534Z,3.23
2023-12-05T04:57:01.022Z,3.22
2023-12-05T04:59:46.653Z,3.21
2023-12-05T05:02:32.095Z,3.22
2023-12-05T05:05:17.584Z,3.21
2023-12-05T05:08:03.318Z,3.19
2023-12-05T05:10:48.800Z,3.18
2023-12-05T05:13:39.517Z,3.15
2023-12-05T05:16:31.070Z,3.13
2023-12-05T05:19:16.672Z,3.10
2023-12-05T05:22:02.672Z,3.08
2023-12-05T05:24:48.492Z,3.06
2023-12-05T05:27:34.380Z,3.06
2023-12-05T05:30:19.987Z,3.04
2023-12-05T05:33:05.454Z,3.03
2023-12-05T05:35:51.742Z,3.03
2023-12-05T05:38:37.184Z,3.01
2023-12-05T05:41:23.029Z,3.01
2023-12-05T05:44:08.846Z,3.00
2023-12-05T05:46:54.514Z,2.97
2023-12-05T05:49:41.073Z,2.97
2023-12-05T05:52:26.956Z,2.96
2023-12-05T05:55:12.565Z,2.93
2023-12-05T05:57:58.159Z,2.94
2023-12-05T06:00:45.815Z,2.94
2023-12-05T06:03:32.949Z,2.95
2023-12-05T06:06:19.025Z,2.95
2023-12-05T06:09:05.514Z,2.94
2023-12-05T06:11:51.495Z,2.95
2023-12-05T06:14:36.807Z,2.96
2023-12-05T06:17:22.333Z,2.97
2023-12-05T06:20:09.980Z,2.98
2023-12-05T06:22:55.360Z,2.98
2023-12-05T06:25:40.809Z,2.98
2023-12-05T06:28:26.269Z,2.99
2023-12-05T06:31:11.679Z,2.98
2023-12-05T06:33:57.280Z,2.99
2023-12-05T06:36:43.049Z,2.99
2023-12-05T06:39:28.838Z,2.98
2023-12-05T06:42:14.424Z,2.98
2023-12-05T06:44:59.812Z,2.95
2023-12-05T06:47:46.270Z,2.92
2023-12-05T06:50:31.635Z,2.91
2023-12-05T06:53:17.370Z,2.91
2023-12-05T06:56:03.393Z,2.90
2023-12-05T06:58:49.004Z,2.88
2023-12-05T07:01:35.274Z,2.88
2023-12-05T07:04:21.194Z,2.85
2023-12-05T07:07:07.452Z,2.84
2023-12-05T07:09:52.871Z,2.83
2023-12-05T07:12:38.436Z,2.83
2023-12-05T07:15:23.903Z,2.84
2023-12-05T07:18:10.346Z,2.87
2023-12-05T07:20:55.963Z,2.88
2023-12-05T07:23:44.255Z,2.91
2023-12-05T07:26:32.190Z,2.91
2023-12-05T07:29:17.925Z,2.94
2023-12-05T07:32:03.610Z,2.94
2023-12-05T07:34:51.292Z,2.93
2023-12-05T07:37:36.887Z,2.93
2023-12-05T07:40:22.612Z,2.93
2023-12-05T07:43:08.549Z,2.95
2023-12-05T07:45:54.086Z,2.98
2023-12-05T07:48:40.432Z,3.02
2023-12-05T07:51:27.018Z,3.03
2023-12-05T07:54:12.992Z,3.06
2023-12-05T07:56:58.518Z,3.08
2023-12-05T07:59:44.969Z,3.07
2023-12-05T08:02:30.644Z,3.08
2023-12-05T08:05:16.409Z,3.09
2023-12-05T08:08:02.328Z,3.11
2023-12-05T08:10:49.219Z,3.12
2023-12-05T08:13:34.740Z,3.16
2023-12-05T08:16:21.218Z,3.16
2023-12-05T08:19:06.915Z,3.17
2023-12-05T08:21:53.029Z,3.19
2023-12-05T08:24:38.816Z,3.18
2023-12-05T08:27:24.566Z,3.19
2023-12-05T08:30:10.594Z,3.20
2023-12-05T08:32:59.039Z,3.23
2023-12-05T08:35:45.254Z,3.24
2023-12-05T08:38:31.047Z,3.22
2023-12-05T08:41:22.887Z,3.20
2023-12-05T08:44:08.631Z,3.19
2023-12-05T08:46:54.115Z,3.19
2023-12-05T08:49:39.607Z,3.20
2023-12-05T08:52:24.946Z,3.25
2023-12-05T08:55:10.355Z,3.28
2023-12-05T08:57:56.830Z,3.31
2023-12-05T09:00:42.745Z,3.33
2023-12-05T09:03:28.801Z,3.34
2023-12-05T09:06:14.525Z,3.35
2023-12-05T09:09:00.158Z,3.36
2023-12-05T09:11:46.338Z,3.37
2023-12-05T09:14:31.874Z,3.40
2023-12-05T09:17:17.488Z,3.42
2023-12-05T09:20:03.015Z,3.42
2023-12-05T09:22:49.722Z,3.46
2023-12-05T09:25:36.381Z,3.45
2023-12-05T09:28:21.773Z,3.45
2023-12-05T09:31:07.344Z,3.45
2023-12-05T09:33:54.500Z,3.44
2023-12-05T09:36:39.922Z,3.40
2023-12-05T09:39:25.418Z,3.32
2023-12-05T09:42:15.002Z,3.26
2023-12-05T09:45:03.890Z,3.26
2023-12-05T09:47:54.018Z,3.26
2023-12-05T09:50:40.096Z,3.24
2023-12-05T09:53:28.008Z,3.21
2023-12-05T09:56:16.338Z,3.20
2023-12-05T09:59:02.727Z,3.20
2023-12-05T10:01:48.370Z,3.20
2023-12-05T10:04:43.060Z,3.20
2023-12-05T10:07:29.337Z,3.19
2023-12-05T10:10:16.551Z,3.24
2023-12-05T10:13:03.399Z,3.27
2023-12-05T10:15:49.171Z,3.32
2023-12-05T10:18:36.655Z,3.34
2023-12-05T10:21:22.320Z,3.37
2023-12-05T10:24:08.187Z,3.39
2023-12-05T10:26:54.630Z,3.40
2023-12-05T10:29:44.162Z,3.42
2023-12-05T10:32:30.032Z,3.43
2023-12-05T10:35:15.442Z,3.41
2023-12-05T10:38:06.296Z,3.42
2023-12-05T10:40:55.704Z,3.43
2023-12-05T10:43:50.461Z,3.44
2023-12-05T10:46:38.202Z,3.46
2023-12-05T10:49:24.027Z,3.51
2023-12-05T10:52:10.696Z,3.54
2023-12-05T10:54:57.935Z,3.59
2023-12-05T10:57:44.236Z,3.64
2023-12-05T11:00:30.991Z,3.67
2023-12-05T11:03:16.895Z,3.70
2023-12-05T11:06:03.718Z,3.72
2023-12-05T11:08:49.514Z,3.75
2023-12-05T11:11:36.753Z,3.80
2023-12-05T11:14:26.111Z,3.81
2023-12-05T11:17:18.377Z,3.83
2023-12-05T11:20:44.923Z,3.87
2023-12-05T11:23:31.522Z,3.92
2023-12-05T11:26:45.862Z,3.94
2023-12-05T11:30:05.248Z,3.96
2023-12-05T11:33:14.415Z,3.98
2023-12-05T11:36:30.188Z,3.96
2023-12-05T11:39:16.723Z,3.97
2023-12-05T11:42:15.387Z,3.96
2023-12-05T11:45:21.106Z,3.98
2023-12-05T11:48:09.902Z,3.99
2023-12-05T11:50:57.710Z,4.00
2023-12-05T11:53:43.539Z,4.01
2023-12-05T11:56:29.828Z,4.02
2023-12-05T11:59:15.400Z,4.05
2023-12-05T12:02:01.413Z,4.07
2023-12-05T12:04:47.479Z,4.08
2023-12-05T12:07:42.618Z,4.14
2023-12-05T12:10:28.264Z,4.16
2023-12-05T12:13:14.609Z,4.20
2023-12-05T12:16:01.672Z,4.21
2023-12-05T12:18:53.128Z,4.28
2023-12-05T12:21:40.595Z,4.30
2023-12-05T12:24:26.436Z,4.34
2023-12-05T12:27:12.973Z,4.36
2023-12-05T12:29:58.686Z,4.38
2023-12-05T12:32:54.916Z,4.34
2023-12-05T12:35:40.705Z,4.32
2023-12-05T12:38:26.421Z,4.28
2023-12-05T12:41:12.772Z,4.24
2023-12-05T12:43:58.284Z,4.16
2023-12-05T12:46:43.890Z,4.13
2023-12-05T12:49:29.677Z,4.09
2023-12-05T12:52:15.128Z,4.11
2023-12-05T12:55:01.538Z,4.14
2023-12-05T12:57:47.130Z,4.22
2023-12-05T13:00:41.397Z,4.34
2023-12-05T13:03:29.303Z,4.54
2023-12-05T13:06:15.392Z,4.71
2023-12-05T13:09:01.346Z,4.86
2023-12-05T13:11:48.135Z,4.95
2023-12-05T13:14:33.758Z,5.01
2023-12-05T13:17:19.650Z,5.08
2023-12-05T13:20:09.538Z,5.08
2023-12-05T13:22:56.490Z,5.14
2023-12-05T13:25:46.011Z,5.22
2023-12-05T13:28:32.413Z,5.29
2023-12-05T13:31:18.339Z,5.37
2023-12-05T13:34:04.716Z,5.48
2023-12-05T13:36:50.839Z,5.45
2023-12-05T13:39:36.827Z,5.32
2023-12-05T13:42:22.484Z,5.17
2023-12-05T13:45:08.472Z,5.09
2023-12-05T13:47:54.302Z,5.00
2023-12-05T13:50:39.738Z,4.95
2023-12-05T13:53:25.616Z,4.84
2023-12-05T13:56:11.838Z,4.76
2023-12-05T13:58:59.415Z,4.68
2023-12-05T14:01:45.329Z,4.63
2023-12-05T14:04:30.901Z,4.57
2023-12-05T14:07:16.731Z,4.52
2023-12-05T14:10:02.592Z,4.50
2023-12-05T14:12:48.422Z,4.46
2023-12-05T14:15:34.664Z,4.40
2023-12-05T14:18:20.563Z,4.34
2023-12-05T14:21:06.434Z,4.29
2023-12-05T14:23:52.262Z,4.30
2023-12-05T14:26:37.527Z,4.34
2023-12-05T14:29:23.162Z,4.41
2023-12-05T14:32:08.611Z,4.50
2023-12-05T14:34:54.249Z,4.62
2023-12-05T14:37:39.736Z,4.73
2023-12-05T14:40:25.345Z,4.80
2023-12-05T14:43:10.742Z,4.88
2023-12-05T14:45:57.351Z,4.94
2023-12-05T14:48:42.822Z,4.98
2023-12-05T14:51:28.284Z,5.00
2023-12-05T14:54:13.945Z,5.01
2023-12-05T14:57:00.641Z,5.00
2023-12-05T14:59:46.304Z,4.98
2023-12-05T15:02:31.991Z,4.96
2023-12-05T15:05:17.999Z,4.95
2023-12-05T15:08:06.977Z,4.95
2023-12-05T15:10:53.945Z,4.94
2023-12-05T15:13:39.592Z,4.93
2023-12-05T15:16:25.307Z,4.94
2023-12-05T15:19:11.988Z,4.94
2023-12-05T15:21:57.682Z,4.94
2023-12-05T15:24:43.190Z,4.96
2023-12-05T15:27:28.672Z,4.96
2023-12-05T15:30:14.451Z,4.96
2023-12-05T15:33:01.194Z,4.95
2023-12-05T15:35:46.841Z,4.94
2023-12-05T15:38:32.664Z,4.91
2023-12-05T15:41:18.222Z,4.88
2023-12-05T15:44:03.928Z,4.84
2023-12-05T15:46:49.605Z,4.81
2023-12-05T15:49:35.293Z,4.78
2023-12-05T15:52:20.746Z,4.76
2023-12-05T15:55:07.325Z,4.75
2023-12-05T15:57:53.286Z,4.73
2023-12-05T16:00:39.673Z,4.71
2023-12-05T16:03:25.051Z,4.68
2023-12-05T16:06:11.730Z,4.66
2023-12-05T16:08:57.501Z,4.62
2023-12-05T16:11:43.636Z,4.59
2023-12-05T16:14:32.142Z,4.55
2023-12-05T16:17:18.210Z,4.49
2023-12-05T16:20:04.443Z,4.46
2023-12-05T16:22:50.524Z,4.45
2023-12-05T16:25:36.446Z,4.42
2023-12-05T16:28:21.706Z,4.41
2023-12-05T16:31:07.871Z,4.41
2023-12-05T16:33:53.526Z,4.39
2023-12-05T16:36:39.572Z,4.38
2023-12-05T16:39:25.274Z,4.34
2023-12-05T16:42:10.644Z,4.31
2023-12-05T16:44:56.701Z,4.26
2023-12-05T16:47:42.544Z,4.16
2023-12-05T16:50:27.824Z,4.02
2023-12-05T16:53:13.382Z,3.86
2023-12-05T16:55:59.077Z,3.76
2023-12-05T16:58:44.603Z,3.58
2023-12-05T17:01:30.179Z,3.38
2023-12-05T17:04:16.188Z,3.12
2023-12-05T17:07:01.862Z,2.91
2023-12-05T17:09:47.783Z,2.68
2023-12-05T17:12:34.724Z,2.51
2023-12-05T17:15:20.120Z,2.37
2023-12-05T17:18:05.785Z,2.11
2023-12-05T17:20:51.333Z,1.84
2023-12-05T17:23:39.637Z,1.59
2023-12-05T17:26:25.449Z,1.48
2023-12-05T17:29:11.022Z,1.46
2023-12-05T17:31:56.426Z,1.25
2023-12-05T17:34:41.982Z,1.06
2023-12-05T17:37:32.190Z,0.94
2023-12-05T17:40:17.647Z,0.93
2023-12-05T17:43:03.267Z,0.80
2023-12-05T17:45:48.760Z,0.60
2023-12-05T17:48:34.313Z,0.46
2023-12-05T17:51:19.727Z,0.57
2023-12-05T17:54:05.979Z,0.56
2023-12-05T17:56:51.369Z,0.59
2023-12-05T17:59:37.075Z,0.52
2023-12-05T18:02:24.436Z,0.29
2023-12-05T18:05:10.157Z,0.14
2023-12-05T18:07:59.785Z,0.32
2023-12-05T18:10:46.891Z,0.38
2023-12-05T18:13:32.397Z,0.21
2023-12-05T18:16:19.202Z,0.17
2023-12-05T18:19:07.553Z,0.26
2023-12-05T18:21:53.146Z,0.29
2023-12-05T18:24:38.997Z,0.29
2023-12-05T18:27:24.850Z,0.40
2023-12-05T18:30:11.046Z,0.60
2023-12-05T18:32:59.237Z,0.80
2023-12-05T18:35:45.017Z,0.99
2023-12-05T18:38:30.464Z,1.08
2023-12-05T18:41:16.247Z,1.13
2023-12-05T18:44:02.031Z,1.21
2023-12-05T18:46:47.768Z,1.35
2023-12-05T18:49:33.339Z,1.46
2023-12-05T18:52:19.300Z,1.56
2023-12-05T18:55:07.101Z,1.66
2023-12-05T18:57:55.092Z,1.73
2023-12-05T19:00:41.456Z,1.83
2023-12-05T19:03:27.528Z,1.91
2023-12-05T19:06:13.283Z,1.97
2023-12-05T19:08:58.682Z,2.04
2023-12-05T19:11:44.299Z,2.06
2023-12-05T19:14:30.092Z,2.11
2023-12-05T19:17:17.451Z,2.15
2023-12-05T19:20:05.436Z,2.16
2023-12-05T19:22:50.862Z,2.23
2023-12-05T19:25:36.228Z,2.29
2023-12-05T19:28:21.732Z,2.33
2023-12-05T19:31:07.461Z,2.30
2023-12-05T19:33:53.157Z,2.34
2023-12-05T19:36:38.856Z,2.37
2023-12-05T19:39:24.477Z,2.41
2023-12-05T19:42:11.264Z,2.42
2023-12-05T19:44:56.608Z,2.45
2023-12-05T19:47:42.092Z,2.51
2023-12-05T19:50:27.595Z,2.56
2023-12-05T19:53:13.399Z,2.59
2023-12-05T19:55:59.994Z,2.61
2023-12-05T19:58:45.639Z,2.60
2023-12-05T20:01:31.268Z,2.63
2023-12-05T20:04:16.823Z,2.66
2023-12-05T20:07:02.689Z,2.66
2023-12-05T20:09:48.159Z,2.67
2023-12-05T20:12:33.675Z,2.67
2023-12-05T20:15:19.115Z,2.68
2023-12-05T20:18:04.694Z,2.69
2023-12-05T20:20:51.364Z,2.65
2023-12-05T20:23:37.305Z,2.70
2023-12-05T20:26:23.074Z,2.70
2023-12-05T20:29:08.746Z,2.71
2023-12-05T20:31:54.297Z,2.67
2023-12-05T20:34:41.588Z,2.59
2023-12-05T20:37:27.566Z,2.51
2023-12-05T20:40:13.398Z,2.49
2023-12-05T20:42:59.227Z,2.48
2023-12-05T20:45:45.137Z,2.50
2023-12-05T20:48:30.684Z,2.52
2023-12-05T20:51:16.611Z,2.52
2023-12-05T20:54:03.129Z,2.52
2023-12-05T20:56:48.723Z,2.47
2023-12-05T20:59:35.656Z,2.41
2023-12-05T21:02:24.288Z,2.29
2023-12-05T21:05:10.528Z,2.16
2023-12-05T21:07:55.902Z,2.02
2023-12-05T21:10:41.608Z,1.90
2023-12-05T21:13:27.411Z,1.83
2023-12-05T21:16:12.893Z,1.76
2023-12-05T21:18:58.554Z,1.76
2023-12-05T21:21:44.919Z,1.72
2023-12-05T21:24:33.360Z,1.62
2023-12-05T21:27:20.559Z,1.57
2023-12-05T21:30:07.275Z,1.55
2023-12-05T21:32:53.050Z,1.57
2023-12-05T21:35:38.416Z,1.64
2023-12-05T21:38:23.995Z,1.67
2023-12-05T21:41:10.230Z,1.65
2023-12-05T21:43:55.513Z,1.61
2023-12-05T21:46:41.098Z,1.57
2023-12-05T21:49:26.653Z,1.58
2023-12-05T21:52:12.701Z,1.63
2023-12-05T21:54:58.542Z,1.67
2023-12-05T21:57:44.361Z,1.65
2023-12-05T22:00:29.860Z,1.62
2023-12-05T22:03:15.833Z,1.44
2023-12-05T22:06:01.144Z,1.17
2023-12-05T22:08:46.686Z,0.98
2023-12-05T22:11:32.360Z,0.77
2023-12-05T22:14:18.784Z,0.57
2023-12-05T22:17:04.532Z,0.54
2023-12-05T22:19:50.297Z,0.25
2023-12-05T22:22:35.784Z,0.10
2023-12-05T22:25:21.642Z,-0.01
2023-12-05T22:28:07.367Z,0.06
2023-12-05T22:30:53.033Z,0.05
2023-12-05T22:33:39.599Z,-0.06
2023-12-05T22:36:25.783Z,-0.15
2023-12-05T22:39:11.880Z,-0.18
2023-12-05T22:41:57.350Z,-0.04
2023-12-05T22:44:42.972Z,0.09
2023-12-05T22:47:28.741Z,0.16
2023-12-05T22:50:14.308Z,0.21
2023-12-05T22:53:00.307Z,0.18
2023-12-05T22:55:45.820Z,0.00
2023-12-05T22:58:31.695Z,-0.14
2023-12-05T23:01:17.335Z,-0.05
2023-12-05T23:04:03.208Z,-0.09
2023-12-05T23:06:48.850Z,-0.17
2023-12-05T23:09:34.500Z,-0.30
2023-12-05T23:12:20.239Z,-0.33
2023-12-05T23:15:06.554Z,-0.42
2023-12-05T23:17:52.014Z,-0.41
2023-12-05T23:20:37.330Z,-0.39
2023-12-05T23:23:23.178Z,-0.38
2023-12-05T23:26:09.360Z,-0.21
2023-12-05T23:28:54.729Z,0.00
2023-12-05T23:31:40.135Z,0.20
2023-12-05T23:34:25.586Z,0.38
2023-12-05T23:37:11.150Z,0.46
2023-12-05T23:39:57.638Z,0.45
2023-12-05T23:42:43.292Z,0.38
2023-12-05T23:45:28.708Z,0.27
2023-12-05T23:48:15.318Z,0.20
2023-12-05T23:51:00.694Z,0.23
2023-12-05T23:53:46.558Z,0.23
2023-12-05T23:56:32.235Z,0.20
2023-12-05T23:59:18.273Z,0.24
